Time,TemperatureF,DewpointF,PressureIn,WindDirection,WindDirectionDegrees,WindSpeedMPH,WindSpeedGustMPH,Humidity,HourlyPrecipIn,Conditions,Clouds,dailyrainin,SoftwareType,DateUTC
2017-04-25 00:02:00,47.5,47.2,30.19,West,270,0.0,-999.0,99,-99.99,,,0.00,,2017-04-25 04:02:00,
2017-04-25 00:08:00,47.3,47.0,30.19,West,270,0.0,-999.0,99,-99.99,,,0.00,,2017-04-25 04:08:00,
2017-04-25 00:13:00,46.9,46.6,30.19,NNW,337,0.0,-999.0,99,-99.99,,,0.00,,2017-04-25 04:13:00,
2017-04-25 00:19:00,46.6,46.3,30.19,West,270,0.0,-999.0,99,-99.99,,,0.00,,2017-04-25 04:19:00,
2017-04-25 00:24:00,46.4,46.1,30.19,North,360,0.0,-999.0,99,-99.99,,,0.00,,2017-04-25 04:24:00,
2017-04-25 00:29:00,46.0,45.7,30.20,ENE,67,0.0,-999.0,99,-99.99,,,0.00,,2017-04-25 04:29:00,
2017-04-25 00:34:00,45.7,45.4,30.20,ESE,112,0.0,-999.0,99,-99.99,,,0.00,,2017-04-25 04:34:00,
2017-04-25 00:40:00,45.3,45.0,30.19,East,90,0.0,-999.0,99,-99.99,,,0.00,,2017-04-25 04:40:00,
2017-04-25 00:45:00,45.0,44.7,30.19,NNE,22,0.0,-999.0,99,-99.99,,,0.00,,2017-04-25 04:45:00,
2017-04-25 00:51:00,44.6,44.3,30.20,WNW,292,0.0,-999.0,99,-99.99,,,0.00,,2017-04-25 04:51:00,
2017-04-25 00:53:00,44.6,44.3,30.20,West,270,0.0,-999.0,99,-99.99,,,0.00,,2017-04-25 04:53:00,
2017-04-25 00:58:00,44.4,44.1,30.20,SSW,202,0.0,-999.0,99,-99.99,,,0.00,,2017-04-25 04:58:00,
2017-04-25 01:04:00,44.2,43.9,30.20,ESE,112,0.0,-999.0,99,-99.99,,,0.00,,2017-04-25 05:04:00,
2017-04-25 01:09:00,44.1,43.8,30.20,NE,45,0.0,-999.0,99,-99.99,,,0.00,,2017-04-25 05:09:00,
2017-04-25 01:15:00,43.7,43.4,30.20,South,180,0.0,-999.0,99,-99.99,,,0.00,,2017-04-25 05:15:00,
2017-04-25 01:21:00,43.3,43.0,30.20,NE,45,0.0,-999.0,99,-99.99,,,0.00,,2017-04-25 05:21:00,
2017-04-25 01:26:00,43.2,42.9,30.20,SSW,202,0.0,-999.0,99,-99.99,,,0.00,,2017-04-25 05:26:00,
2017-04-25 01:32:00,42.8,42.5,30.20,ESE,112,0.0,-999.0,99,-99.99,,,0.00,,2017-04-25 05:32:00,
2017-04-25 01:37:00,42.8,42.5,30.20,East,90,1.7,-999.0,99,-99.99,,,0.00,,2017-04-25 05:37:00,
2017-04-25 01:42:00,42.4,42.1,30.20,West,270,0.0,-999.0,99,-99.99,,,0.00,,2017-04-25 05:42:00,
2017-04-25 01:47:00,42.3,42.0,30.20,NNW,337,0.0,-999.0,99,-99.99,,,0.00,,2017-04-25 05:47:00,
2017-04-25 01:53:00,42.1,41.8,30.20,ESE,112,0.0,-999.0,99,-99.99,,,0.00,,2017-04-25 05:53:00,
2017-04-25 01:58:00,41.9,41.6,30.20,East,90,0.0,-999.0,99,-99.99,,,0.00,,2017-04-25 05:58:00,
2017-04-25 02:04:00,41.7,41.4,30.20,NNW,337,0.0,-999.0,99,-99.99,,,0.00,,2017-04-25 06:04:00,
2017-04-25 02:09:00,41.7,41.4,30.20,East,90,0.0,-999.0,99,-99.99,,,0.00,,2017-04-25 06:09:00,
2017-04-25 02:15:00,41.5,41.2,30.21,East,90,0.0,-999.0,99,-99.99,,,0.00,,2017-04-25 06:15:00,
2017-04-25 02:20:00,41.4,41.1,30.21,ESE,112,0.0,-999.0,99,-99.99,,,0.00,,2017-04-25 06:20:00,
2017-04-25 02:26:00,41.0,40.7,30.21,East,90,0.0,-999.0,99,-99.99,,,0.00,,2017-04-25 06:26:00,
2017-04-25 02:31:00,41.0,40.7,30.21,WSW,247,2.2,-999.0,99,-99.99,,,0.00,,2017-04-25 06:31:00,
2017-04-25 02:37:00,41.0,40.7,30.21,NE,45,0.0,-999.0,99,-99.99,,,0.00,,2017-04-25 06:37:00,
2017-04-25 02:43:00,41.0,40.7,30.21,SE,135,0.0,-999.0,99,-99.99,,,0.00,,2017-04-25 06:43:00,
2017-04-25 02:48:00,40.8,40.5,30.21,ESE,112,0.0,-999.0,99,-99.99,,,0.00,,2017-04-25 06:48:00,
2017-04-25 02:54:00,40.8,40.5,30.21,ESE,112,0.0,-999.0,99,-99.99,,,0.00,,2017-04-25 06:54:00,
2017-04-25 02:59:00,40.6,40.3,30.21,South,180,0.0,-999.0,99,-99.99,,,0.00,,2017-04-25 06:59:00,
2017-04-25 03:05:00,40.6,40.3,30.22,SSW,202,0.0,-999.0,99,-99.99,,,0.00,,2017-04-25 07:05:00,
2017-04-25 03:10:00,40.5,40.2,30.22,NNW,337,0.0,-999.0,99,-99.99,,,0.00,,2017-04-25 07:10:00,
2017-04-25 03:16:00,40.5,40.2,30.21,West,270,1.7,-999.0,99,-99.99,,,0.00,,2017-04-25 07:16:00,
2017-04-25 03:21:00,40.5,40.2,30.21,SSW,202,0.0,-999.0,99,-99.99,,,0.00,,2017-04-25 07:21:00,
2017-04-25 03:27:00,40.5,40.2,30.22,NNW,337,0.0,-999.0,99,-99.99,,,0.00,,2017-04-25 07:27:00,
2017-04-25 03:33:00,40.6,40.3,30.22,South,180,0.0,-999.0,99,-99.99,,,0.00,,2017-04-25 07:33:00,
2017-04-25 03:38:00,40.6,40.3,30.21,ESE,112,0.0,-999.0,99,-99.99,,,0.00,,2017-04-25 07:38:00,
2017-04-25 03:44:00,40.5,40.2,30.21,ENE,67,0.0,-999.0,99,-99.99,,,0.00,,2017-04-25 07:44:00,
2017-04-25 03:49:00,40.5,40.2,30.21,ESE,112,1.1,-999.0,99,-99.99,,,0.00,,2017-04-25 07:49:00,
2017-04-25 03:55:00,40.5,40.2,30.20,ESE,112,0.0,-999.0,99,-99.99,,,0.00,,2017-04-25 07:55:00,
2017-04-25 04:00:00,40.5,40.2,30.20,ESE,112,0.0,-999.0,99,-99.99,,,0.00,,2017-04-25 08:00:00,
2017-04-25 04:06:00,40.5,40.2,30.21,NE,45,0.0,-999.0,99,-99.99,,,0.00,,2017-04-25 08:06:00,
2017-04-25 04:11:00,40.5,40.2,30.21,ENE,67,0.0,-999.0,99,-99.99,,,0.00,,2017-04-25 08:11:00,
2017-04-25 04:17:00,40.5,40.2,30.21,WNW,292,0.0,-999.0,99,-99.99,,,0.00,,2017-04-25 08:17:00,
2017-04-25 04:22:00,40.8,40.5,30.21,NE,45,1.1,-999.0,99,-99.99,,,0.00,,2017-04-25 08:22:00,
2017-04-25 04:28:00,40.8,40.5,30.21,SSE,157,0.0,-999.0,99,-99.99,,,0.00,,2017-04-25 08:28:00,
2017-04-25 04:34:00,41.2,40.9,30.21,NNE,22,1.1,-999.0,99,-99.99,,,0.00,,2017-04-25 08:34:00,
2017-04-25 04:39:00,41.2,40.9,30.21,West,270,1.1,-999.0,99,-99.99,,,0.00,,2017-04-25 08:39:00,
2017-04-25 04:50:00,41.5,41.2,30.22,NNE,22,0.0,-999.0,99,-99.99,,,0.00,,2017-04-25 08:50:00,
2017-04-25 04:56:00,41.7,41.4,30.22,NNE,22,0.0,-999.0,99,-99.99,,,0.00,,2017-04-25 08:56:00,
2017-04-25 05:01:00,41.9,41.6,30.22,East,90,1.7,-999.0,99,-99.99,,,0.00,,2017-04-25 09:01:00,
2017-04-25 05:07:00,41.9,41.6,30.22,West,270,0.0,-999.0,99,-99.99,,,0.00,,2017-04-25 09:07:00,
2017-04-25 05:12:00,41.9,41.6,30.22,NW,315,0.0,-999.0,99,-99.99,,,0.00,,2017-04-25 09:12:00,
2017-04-25 05:17:00,42.6,42.3,30.23,West,270,0.0,-999.0,99,-99.99,,,0.00,,2017-04-25 09:17:00,
2017-04-25 05:23:00,42.6,42.3,30.23,East,90,0.0,-999.0,99,-99.99,,,0.00,,2017-04-25 09:23:00,
2017-04-25 05:28:00,42.6,42.3,30.24,ESE,112,0.0,-999.0,99,-99.99,,,0.00,,2017-04-25 09:28:00,
2017-04-25 05:34:00,42.8,42.5,30.24,SSE,157,0.0,-999.0,99,-99.99,,,0.00,,2017-04-25 09:34:00,
2017-04-25 05:40:00,42.8,42.5,30.24,ENE,67,1.7,-999.0,99,-99.99,,,0.00,,2017-04-25 09:40:00,
2017-04-25 05:45:00,42.8,42.5,30.24,North,360,2.7,-999.0,99,-99.99,,,0.00,,2017-04-25 09:45:00,
2017-04-25 05:51:00,43.3,43.0,30.23,NW,315,4.2,-999.0,99,-99.99,,,0.00,,2017-04-25 09:51:00,
2017-04-25 06:07:00,44.1,43.8,30.24,NW,315,3.2,-999.0,99,-99.99,,,0.00,,2017-04-25 10:07:00,
2017-04-25 06:13:00,44.4,44.1,30.24,NW,315,1.1,-999.0,99,-99.99,,,0.00,,2017-04-25 10:13:00,
2017-04-25 06:18:00,44.8,44.5,30.24,NW,315,2.2,-999.0,99,-99.99,,,0.00,,2017-04-25 10:18:00,
2017-04-25 06:24:00,45.0,44.7,30.24,North,360,0.0,-999.0,99,-99.99,,,0.00,,2017-04-25 10:24:00,
2017-04-25 06:30:00,45.1,44.8,74.32,North,360,0.0,-999.0,99,-99.99,,,0.00,,2017-04-25 10:30:00,
2017-04-25 06:36:00,45.1,44.8,30.24,ESE,112,0.0,-999.0,99,-99.99,,,0.00,,2017-04-25 10:36:00,
2017-04-25 06:41:00,45.5,45.2,30.24,ESE,112,1.7,-999.0,99,-99.99,,,0.00,,2017-04-25 10:41:00,
2017-04-25 06:47:00,45.5,45.2,30.24,NW,315,1.7,-999.0,99,-99.99,,,0.00,,2017-04-25 10:47:00,
2017-04-25 06:52:00,46.4,46.1,30.25,ESE,112,0.0,-999.0,99,-99.99,,,0.00,,2017-04-25 10:52:00,
2017-04-25 06:58:00,46.2,45.9,30.25,NNE,22,2.2,-999.0,99,-99.99,,,0.00,,2017-04-25 10:58:00,
2017-04-25 07:03:00,46.4,46.1,30.26,West,270,2.7,-999.0,99,-99.99,,,0.00,,2017-04-25 11:03:00,
2017-04-25 07:09:00,46.6,46.3,30.26,NNW,337,2.7,-999.0,99,-99.99,,,0.00,,2017-04-25 11:09:00,
2017-04-25 07:15:00,46.6,46.3,30.27,NNE,22,1.1,-999.0,99,-99.99,,,0.00,,2017-04-25 11:15:00,
2017-04-25 07:20:00,46.6,46.3,30.27,NNW,337,2.7,-999.0,99,-99.99,,,0.00,,2017-04-25 11:20:00,
2017-04-25 07:26:00,46.6,46.3,30.27,West,270,3.2,-999.0,99,-99.99,,,0.01,,2017-04-25 11:26:00,
2017-04-25 07:31:00,46.6,46.3,30.27,West,270,0.0,-999.0,99,-99.99,,,0.01,,2017-04-25 11:31:00,
2017-04-25 07:37:00,46.4,46.1,30.27,WNW,292,5.8,-999.0,99,-99.99,,,0.02,,2017-04-25 11:37:00,
2017-04-25 07:42:00,46.2,45.9,30.28,West,270,2.7,-999.0,99,-99.99,,,0.02,,2017-04-25 11:42:00,
2017-04-25 07:48:00,46.2,45.9,30.28,SW,225,2.2,-999.0,99,-99.99,,,0.02,,2017-04-25 11:48:00,
2017-04-25 07:53:00,46.2,45.9,30.28,NW,315,0.0,-999.0,99,-99.99,,,0.03,,2017-04-25 11:53:00,
2017-04-25 07:59:00,46.4,46.1,30.28,North,360,1.1,-999.0,99,-99.99,,,0.03,,2017-04-25 11:59:00,
2017-04-25 08:05:00,46.6,46.3,30.28,ENE,67,0.0,-999.0,99,-99.99,,,0.03,,2017-04-25 12:05:00,
2017-04-25 08:10:00,46.9,46.6,30.28,WNW,292,1.7,-999.0,99,-99.99,,,0.03,,2017-04-25 12:10:00,
2017-04-25 08:16:00,47.3,47.0,30.29,WNW,292,1.1,-999.0,99,-99.99,,,0.03,,2017-04-25 12:16:00,
2017-04-25 08:21:00,47.5,47.2,30.29,WNW,292,1.7,-999.0,99,-99.99,,,0.03,,2017-04-25 12:21:00,
2017-04-25 08:27:00,47.7,47.4,30.29,West,270,2.2,-999.0,99,-99.99,,,0.03,,2017-04-25 12:27:00,
2017-04-25 08:32:00,48.0,47.7,30.29,NW,315,0.0,-999.0,99,-99.99,,,0.03,,2017-04-25 12:32:00,
2017-04-25 08:38:00,48.0,47.7,30.29,NNE,22,0.0,-999.0,99,-99.99,,,0.04,,2017-04-25 12:38:00,
2017-04-25 08:43:00,48.2,47.9,30.29,NNW,337,0.0,-999.0,99,-99.99,,,0.04,,2017-04-25 12:43:00,
2017-04-25 08:49:00,48.7,48.4,30.29,West,270,0.0,-999.0,99,-99.99,,,0.04,,2017-04-25 12:49:00,
2017-04-25 08:54:00,48.9,48.6,30.30,SE,135,0.0,-999.0,99,-99.99,,,0.04,,2017-04-25 12:54:00,
2017-04-25 09:00:00,49.5,49.2,30.30,ESE,112,0.0,-999.0,99,-99.99,,,0.04,,2017-04-25 13:00:00,
2017-04-25 09:06:00,49.1,48.8,30.30,NW,315,4.7,-999.0,99,-99.99,,,0.04,,2017-04-25 13:06:00,
2017-04-25 09:11:00,48.6,48.3,30.30,WNW,292,5.3,-999.0,99,-99.99,,,0.04,,2017-04-25 13:11:00,
2017-04-25 09:17:00,48.6,48.3,30.30,West,270,2.7,-999.0,99,-99.99,,,0.04,,2017-04-25 13:17:00,
2017-04-25 09:22:00,48.7,48.4,30.30,North,360,1.7,-999.0,99,-99.99,,,0.04,,2017-04-25 13:22:00,
2017-04-25 09:28:00,48.6,48.3,30.30,North,360,6.8,-999.0,99,-99.99,,,0.05,,2017-04-25 13:28:00,
2017-04-25 09:33:00,48.6,48.3,30.30,WNW,292,2.2,-999.0,99,-99.99,,,0.05,,2017-04-25 13:33:00,
2017-04-25 09:39:00,48.6,48.3,30.30,SE,135,2.2,-999.0,99,-99.99,,,0.05,,2017-04-25 13:39:00,
2017-04-25 09:44:00,48.7,48.4,30.30,NW,315,2.7,-999.0,99,-99.99,,,0.06,,2017-04-25 13:44:00,
2017-04-25 09:50:00,48.2,47.9,30.30,NNW,337,2.7,-999.0,99,-99.99,,,0.06,,2017-04-25 13:50:00,
2017-04-25 09:56:00,48.4,48.1,30.30,North,360,0.0,-999.0,99,-99.99,,,0.06,,2017-04-25 13:56:00,
2017-04-25 10:01:00,48.7,48.4,30.30,NE,45,0.0,-999.0,99,-99.99,,,0.07,,2017-04-25 14:01:00,
2017-04-25 10:07:00,48.6,48.3,30.31,NNE,22,2.2,-999.0,99,-99.99,,,0.07,,2017-04-25 14:07:00,
2017-04-25 10:12:00,48.7,48.4,30.31,SSE,157,1.7,-999.0,99,-99.99,,,0.08,,2017-04-25 14:12:00,
2017-04-25 10:24:00,49.1,48.8,30.31,North,360,0.0,-999.0,99,-99.99,,,0.08,,2017-04-25 14:24:00,
2017-04-25 10:29:00,49.3,49.0,30.31,East,90,0.0,-999.0,99,-99.99,,,0.08,,2017-04-25 14:29:00,
2017-04-25 10:35:00,50.0,49.7,30.31,ENE,67,2.7,-999.0,99,-99.99,,,0.08,,2017-04-25 14:35:00,
2017-04-25 10:41:00,50.2,49.9,30.30,SE,135,2.2,-999.0,99,-99.99,,,0.08,,2017-04-25 14:41:00,
2017-04-25 10:46:00,50.5,50.2,30.30,NNE,22,0.0,-999.0,99,-99.99,,,0.08,,2017-04-25 14:46:00,
2017-04-25 10:52:00,50.9,50.6,30.31,WNW,292,2.2,-999.0,99,-99.99,,,0.08,,2017-04-25 14:52:00,
2017-04-25 10:57:00,51.1,50.8,30.31,NW,315,0.0,-999.0,99,-99.99,,,0.08,,2017-04-25 14:57:00,
2017-04-25 11:03:00,51.1,50.8,30.30,North,360,0.0,-999.0,99,-99.99,,,0.09,,2017-04-25 15:03:00,